Terminal Aerodrome Forecast
Issued by NWS Pittsburgh, PA

Current Version | Previous Version | Graphics & Text | Print | Product List | Glossary On
Versions: 1 2 3 4 5 6 7 8 9 10 11 12 13 14 15 16 17 18 19 20 21 22 23 24 25 26 27 28 29 30 31 32 33 34 35
000
FTUS41 KPBZ 232300
TAFPIT
TAF
KPIT 232323Z 2400/2506 36007KT 2SM -SN OVC020
      TEMPO 2400/2403 1SM -SN OVC006
     FM240500 01003KT P6SM OVC015
     FM241500 04005KT P6SM BKN035=

USA.gov is the U.S. government's official web portal to all federal, state and local government web resources and services.